Etusivu
METAR-TAF:

METAR-TAF

Lentoasemat :

Sotilaslentoasema

Niederstetten, Saksa

Leveyspiiri: 49-24N, Pituuspiiri: 009-58E, korkeus merenpinnasta: 468 m

Tämänhetkinen sää

Tämä raportti tehtiin 14 minuuttia sitten, kello 03.20 UTC
Tuuli 12 kn kaakosta
Lämpötila -4°C
Kosteus 74%
Ilmanpaine 1013 hPa
Näkyvyys 10 km tai enemmän
Pilvistä 11000 ft:n korkeudessa

METAR: ETHN 160320Z 14012KT 9999 OVC110 M04/M08 Q1013 BLU

Aika: 04:34 (03:34 UTC)


TAF: puuttuu

Säähavainnot ja -ennusteet yli 4000 lentoasemalta (METAR- ja TAF-raportit).

Käytössä olevat sääasemat on merkitty karttaan keltaisilla ja punaisilla pisteillä.

Aseta hiiri pisteen päälle nähdäksesi sääaseman nimen.

Klikkaa sitten nähdäksesi säähavainnot ja -ennusteet.

Kartan vaihtaminen: klikkaa mustalla rastilla varustettuja vihreitä pisteitä, niin voit zoomata sisään; viivalla varustettua vihreää pistettä, niin voit zoomata ulos tai vihreitä nuolia, niin pääset viereisille kartoille.


METAR-TAF: